Flight Track Log - Related Links

Times and Time Zones

All times are in EDT time to prevent confusion due to time zone crossing. See the CTL15 flight status page for this flight to view local times or setup timezone preferences in your user account.

Time Position Orientation Groundspeed Altitude Reporting Facility
EDT Latitude Longitude Course Direction KTS MPH feet Rate Location/Type
Thu 07:47:13 PM 39.5708 -84.2008 45° Northeast 113 130 2,200  Level Indianapolis Center
Thu 07:48:32 PM 39.6011 -84.1614 45° Northeast 120 138 3,500 1,009 Climbing Indianapolis Center
Thu 07:49:06 PM 39.6122 -84.1450 49° Northeast 118 136 4,100 984 Climbing Indianapolis Center
Thu 07:49:33 PM 39.6228 -84.1264 54° Northeast 125 144 4,500 871 Climbing Indianapolis Center
Thu 07:50:08 PM 39.6353 -84.1089 47° Northeast 124 143 5,000 984 Climbing Indianapolis Center
Thu 07:50:34 PM 39.6467 -84.0889 54° Northeast 136 157 5,500 871 Climbing Indianapolis Center
Thu 07:51:10 PM 39.6589 -84.0692 51° Northeast 132 152 5,900 818 Climbing Indianapolis Center
Thu 07:51:40 PM 39.6772 -84.0467 43° Northeast 140 161 6,400 871 Climbing Indianapolis Center
Thu 07:52:12 PM 39.6867 -84.0331 48° Northeast 136 157 6,800 492 Climbing Indianapolis Center
Thu 07:52:41 PM 39.7053 -84.0097 44° Northeast 151 174 6,900 97 Climbing Indianapolis Center
Thu 07:53:14 PM 39.7236 -83.9844 47° Northeast 150 173 6,900  Level Indianapolis Center
Thu 07:53:29 PM 39.7311 -83.9725 51° Northeast 181 208 6,900  Level Indianapolis Center
Thu 07:54:16 PM 39.7600 -83.9367 44° Northeast 170 196 6,900  Level Indianapolis Center
Thu 07:55:18 PM 39.7961 -83.8894 45° Northeast 178 205 6,900 49 Level Indianapolis Center
Thu 07:56:19 PM 39.8336 -83.8447 42° Northeast 180 207 7,000  Climbing Indianapolis Center
Thu 07:57:21 PM 39.8692 -83.7969 46° Northeast 181 208 6,900  Descending Indianapolis Center
Thu 07:58:33 PM 39.9122 -83.7400 45° Northeast 176 203 7,000  Climbing Indianapolis Center
Thu 07:59:25 PM 39.9403 -83.7056 43° Northeast 178 205 6,900  Descending Indianapolis Center
Thu 08:00:27 PM 39.9767 -83.6622 42° Northeast 176 203 7,000 51 Climbing Indianapolis Center
Thu 08:01:22 PM 40.0133 -83.6167 44° Northeast 175 201 7,000  Level Indianapolis Center
Thu 08:02:23 PM 40.0500 -83.5750 41° Northeast 177 204 7,000 47 Level Indianapolis Center
Thu 08:03:30 PM 40.0894 -83.5225 46° Northeast 179 206 7,100 47 Climbing Indianapolis Center
Thu 08:04:30 PM 40.1261 -83.4806 41° Northeast 176 203 7,100  Level Indianapolis Center
Thu 08:05:31 PM 40.1628 -83.4361 43° Northeast 181 208 7,100  Level Indianapolis Center
Thu 08:06:37 PM 40.2025 -83.3875 43° Northeast 180 207 7,100  Level Indianapolis Center
Thu 08:07:39 PM 40.2383 -83.3450 42° Northeast 175 201 7,100 -52 Level Indianapolis Center
Thu 08:08:33 PM 40.2706 -83.3017 46° Northeast 179 206 7,000 49 Descending Indianapolis Center
Thu 08:09:42 PM 40.3111 -83.2539 42° Northeast 179 206 7,200 46 Climbing Indianapolis Center
Thu 08:10:44 PM 40.3472 -83.2086 44° Northeast 178 205 7,100 -48 Descending Indianapolis Center
Thu 08:11:46 PM 40.3819 -83.1619 46° Northeast 177 204 7,100 -48 Level Indianapolis Center
Thu 08:12:48 PM 40.4194 -83.1208 40° Northeast 175 201 7,000 -49 Descending Indianapolis Center
Thu 08:13:49 PM 40.4614 -83.0697 43° Northeast 175 201 7,000  Level Indianapolis Center
Thu 08:14:51 PM 40.4983 -83.0253 42° Northeast 177 204 7,000 -48 Level Indianapolis Center
Thu 08:15:53 PM 40.5303 -82.9850 44° Northeast 178 205 6,900 -293 Descending Indianapolis Center
Thu 08:16:54 PM 40.5714 -82.9258 48° Northeast 186 214 6,400 -537 Descending Indianapolis Center
Thu 08:17:56 PM 40.6011 -82.8631 58° Northeast 196 226 5,800 -629 Descending Indianapolis Center
Thu 08:18:58 PM 40.6294 -82.8047 57° Northeast 189 217 5,100 -387 Descending Indianapolis Center
Thu 08:20:00 PM 40.6581 -82.7494 56° Northeast 183 211 5,000 -49 Descending Indianapolis Center
Thu 08:21:01 PM 40.6839 -82.6964 57° Northeast 173 199 5,000  Level Indianapolis Center
Thu 08:22:03 PM 40.7100 -82.6453 56° Northeast 167 192 5,000  Level Indianapolis Center
Thu 08:23:05 PM 40.7369 -82.5942 55° Northeast 169 194 5,000  Level Indianapolis Center

Login

Don't have an account? Register now (free) for customized features, flight alerts, and more!